Raymond, Arkansas
Current Conditions -  °F | °C
As of 9:55 PM on Thursday 18 Dec 2014 (Local Time) from KSGT Reporting Station
NA  
Wind Chill: 39°   Ceiling: NA
Heat Index: 43°   Visibility: NA
Dew Point: 39°   Wind: 7mph
Humidity: 87%   Direction: 30°NNE
Pressure: 30.24"   Gusts: NA
Location:  34.5919°N, 91.1409°W
Report Text: KSGT 190355Z 03006KT 06/04 A3024 RMK AO1
Loading
Personal Weather Stations






























Interactive Weather Map New forecast layout! Learn more

10-Day Weather Forecast

Advertisements
Track Severe Weather on mobile